createdAt,value
2022-08-26T00:01:13.446Z,20.83
2022-08-26T00:04:35.445Z,22.00
2022-08-26T00:07:56.490Z,20.27
2022-08-26T00:11:26.591Z,21.23
2022-08-26T00:14:47.456Z,20.90
2022-08-26T00:18:21.913Z,21.40
2022-08-26T00:21:43.442Z,19.65
2022-08-26T00:25:04.455Z,20.13
2022-08-26T00:28:25.433Z,19.40
2022-08-26T00:31:46.482Z,18.85
2022-08-26T00:35:07.441Z,18.58
2022-08-26T00:38:29.454Z,18.30
2022-08-26T00:41:53.435Z,18.27
2022-08-26T00:45:15.457Z,17.45
2022-08-26T00:48:39.435Z,18.20
2022-08-26T00:52:09.830Z,17.95
2022-08-26T00:55:43.474Z,19.23
2022-08-26T00:59:04.449Z,18.65
2022-08-26T01:02:25.505Z,19.70
2022-08-26T01:05:46.476Z,20.58
2022-08-26T01:09:07.462Z,22.90
2022-08-26T01:12:28.463Z,20.55
2022-08-26T01:15:56.586Z,20.80
2022-08-26T01:19:31.470Z,20.80
2022-08-26T01:23:10.479Z,20.10
2022-08-26T01:26:36.464Z,18.42
2022-08-26T01:30:00.483Z,18.95
2022-08-26T01:33:26.473Z,19.42
2022-08-26T01:36:51.332Z,19.00
2022-08-26T01:40:12.506Z,20.10
2022-08-26T01:43:40.470Z,19.70
2022-08-26T01:47:05.149Z,19.08
2022-08-26T01:50:32.469Z,19.42
2022-08-26T01:53:54.457Z,19.83
2022-08-26T01:57:16.483Z,19.63
2022-08-26T02:00:39.485Z,19.13
2022-08-26T02:04:33.553Z,19.05
2022-08-26T02:07:54.499Z,19.95
2022-08-26T02:11:15.493Z,20.38
2022-08-26T02:14:44.017Z,20.30
2022-08-26T02:18:05.478Z,20.77
2022-08-26T02:21:26.482Z,19.58
2022-08-26T02:25:01.486Z,22.17
2022-08-26T02:28:26.705Z,21.73
2022-08-26T02:31:47.507Z,21.50
2022-08-26T02:35:09.496Z,20.63
2022-08-26T02:38:30.505Z,21.10
2022-08-26T02:41:51.487Z,20.67
2022-08-26T02:45:12.508Z,21.60
2022-08-26T02:48:34.488Z,20.55
2022-08-26T02:51:57.482Z,20.55
2022-08-26T02:55:19.499Z,22.20
2022-08-26T02:58:40.488Z,20.88
2022-08-26T03:02:02.576Z,22.00
2022-08-26T03:05:24.469Z,21.70
2022-08-26T03:08:45.510Z,23.23
2022-08-26T03:12:06.502Z,22.48
2022-08-26T03:15:31.538Z,22.98
2022-08-26T03:18:54.519Z,22.38
2022-08-26T03:22:15.543Z,21.10
2022-08-26T03:25:37.552Z,21.98
2022-08-26T03:29:16.610Z,21.63
2022-08-26T03:32:37.520Z,21.33
2022-08-26T03:35:59.500Z,21.70
2022-08-26T03:39:20.513Z,20.65
2022-08-26T03:42:44.455Z,20.65
2022-08-26T03:46:06.572Z,19.98
2022-08-26T03:49:29.016Z,20.75
2022-08-26T03:52:49.523Z,22.63
2022-08-26T03:56:10.501Z,20.60
2022-08-26T03:59:31.523Z,23.13
2022-08-26T04:02:53.368Z,20.92
2022-08-26T04:06:14.520Z,21.45
2022-08-26T04:09:37.516Z,19.73
2022-08-26T04:12:58.815Z,21.33
2022-08-26T04:16:19.538Z,21.95
2022-08-26T04:19:40.532Z,22.02
2022-08-26T04:23:01.577Z,20.38
2022-08-26T04:26:22.521Z,20.50
2022-08-26T04:29:45.522Z,19.50
2022-08-26T04:33:13.175Z,18.95
2022-08-26T04:36:34.513Z,19.90
2022-08-26T04:39:56.572Z,18.70
2022-08-26T04:43:18.505Z,19.25
2022-08-26T04:46:39.910Z,20.67
2022-08-26T04:50:08.541Z,19.17
2022-08-26T04:53:37.585Z,20.75
2022-08-26T04:57:00.551Z,18.95
2022-08-26T05:00:23.528Z,18.58
2022-08-26T05:03:46.585Z,18.75
2022-08-26T05:07:07.543Z,19.50
2022-08-26T05:10:28.575Z,19.05
2022-08-26T05:13:49.539Z,19.20
2022-08-26T05:17:10.551Z,19.63
2022-08-26T05:20:35.541Z,19.48
2022-08-26T05:23:57.558Z,19.67
2022-08-26T05:27:18.534Z,19.02
2022-08-26T05:30:39.546Z,18.45
2022-08-26T05:34:00.546Z,17.85
2022-08-26T05:37:25.581Z,18.08
2022-08-26T05:40:53.112Z,18.25
2022-08-26T05:44:14.560Z,18.83
2022-08-26T05:47:35.531Z,17.73
2022-08-26T05:51:02.565Z,16.40
2022-08-26T05:54:23.559Z,17.33
2022-08-26T05:57:44.566Z,15.45
2022-08-26T06:01:29.642Z,14.77
2022-08-26T06:04:50.556Z,16.85
2022-08-26T06:08:20.572Z,14.88
2022-08-26T06:11:43.555Z,13.65
2022-08-26T06:15:04.565Z,14.60
2022-08-26T06:18:26.578Z,13.65
2022-08-26T06:21:54.184Z,15.05
2022-08-26T06:25:33.551Z,16.50
2022-08-26T06:28:54.562Z,17.80
2022-08-26T06:32:16.558Z,15.63
2022-08-26T06:35:37.573Z,16.15
2022-08-26T06:38:59.564Z,15.13
2022-08-26T06:42:20.578Z,13.80
2022-08-26T06:45:41.573Z,14.35
2022-08-26T06:49:02.575Z,13.80
2022-08-26T06:52:24.624Z,14.13
2022-08-26T06:55:45.583Z,15.27
2022-08-26T06:59:07.709Z,14.20
2022-08-26T07:02:28.748Z,12.48
2022-08-26T07:05:49.560Z,14.55
2022-08-26T07:09:17.589Z,13.75
2022-08-26T07:12:38.556Z,12.30
2022-08-26T07:16:03.037Z,11.20
2022-08-26T07:19:30.316Z,10.52
2022-08-26T07:22:51.597Z,10.18
2022-08-26T07:26:12.593Z,8.43
2022-08-26T07:29:54.587Z,7.47
2022-08-26T07:33:15.599Z,7.50
2022-08-26T07:36:37.598Z,8.07
2022-08-26T07:39:58.687Z,8.43
2022-08-26T07:43:22.605Z,8.35
2022-08-26T07:46:44.594Z,7.90
2022-08-26T07:50:13.591Z,11.73
2022-08-26T07:53:35.616Z,7.18
2022-08-26T07:56:56.617Z,8.20
2022-08-26T08:00:20.649Z,8.75
2022-08-26T08:03:41.590Z,8.23
2022-08-26T08:07:02.632Z,10.80
2022-08-26T08:10:25.656Z,12.25
2022-08-26T08:13:47.607Z,9.90
2022-08-26T08:17:09.718Z,8.52
2022-08-26T08:20:30.621Z,8.35
2022-08-26T08:23:51.637Z,8.63
2022-08-26T08:27:13.640Z,7.90
2022-08-26T08:30:35.630Z,7.40
2022-08-26T08:33:56.601Z,7.90
2022-08-26T08:37:19.587Z,7.22
2022-08-26T08:40:41.610Z,7.32
2022-08-26T08:44:03.598Z,8.18
2022-08-26T08:48:00.614Z,7.40
2022-08-26T08:51:52.636Z,7.13
2022-08-26T08:55:18.128Z,7.20
2022-08-26T08:59:03.629Z,7.38
2022-08-26T09:02:56.604Z,7.43
2022-08-26T09:06:25.630Z,7.90
2022-08-26T09:09:53.610Z,7.30
2022-08-26T09:13:19.600Z,7.63
2022-08-26T09:17:00.692Z,8.30
2022-08-26T09:20:46.638Z,8.27
2022-08-26T09:24:11.064Z,8.05
2022-08-26T09:27:53.621Z,7.45
2022-08-26T09:31:42.630Z,8.23
2022-08-26T09:35:13.616Z,9.13
2022-08-26T09:38:40.628Z,8.73
2022-08-26T09:42:34.635Z,9.00
2022-08-26T09:46:02.707Z,9.05
2022-08-26T09:49:38.754Z,7.93
2022-08-26T09:52:59.628Z,8.27
2022-08-26T09:56:59.652Z,8.02
2022-08-26T10:00:38.718Z,8.05
2022-08-26T10:03:59.822Z,8.40
2022-08-26T10:07:20.640Z,8.88
2022-08-26T10:10:53.154Z,7.50
2022-08-26T10:14:23.684Z,8.13
2022-08-26T10:17:49.850Z,7.50
2022-08-26T10:21:31.691Z,7.65
2022-08-26T10:24:58.646Z,7.68
2022-08-26T10:28:35.660Z,7.18
2022-08-26T10:32:09.685Z,6.53
2022-08-26T10:35:34.668Z,7.65
2022-08-26T10:38:55.692Z,6.40
2022-08-26T10:42:21.706Z,8.00
2022-08-26T10:45:45.712Z,7.70
2022-08-26T10:49:15.685Z,7.47
2022-08-26T10:52:57.665Z,8.00
2022-08-26T10:56:20.663Z,6.43
2022-08-26T10:59:57.660Z,7.20
2022-08-26T11:03:39.675Z,6.68
2022-08-26T11:07:00.657Z,6.88
2022-08-26T11:10:25.717Z,6.63
2022-08-26T11:14:12.698Z,6.55
2022-08-26T11:18:00.168Z,7.47
2022-08-26T11:22:00.695Z,6.45
2022-08-26T11:25:29.712Z,6.35
2022-08-26T11:29:00.666Z,7.35
2022-08-26T11:32:48.718Z,6.28
2022-08-26T11:36:12.401Z,7.45
2022-08-26T11:39:43.269Z,6.65
2022-08-26T11:43:11.670Z,5.45
2022-08-26T11:46:37.662Z,5.60
2022-08-26T11:50:08.105Z,6.82
2022-08-26T11:53:32.684Z,5.60
2022-08-26T11:56:55.685Z,5.70
2022-08-26T12:00:22.262Z,6.55
2022-08-26T12:03:52.832Z,7.13
2022-08-26T12:07:15.676Z,6.13
2022-08-26T12:10:44.671Z,6.18
2022-08-26T12:14:15.760Z,6.43
2022-08-26T12:17:40.851Z,6.30
2022-08-26T12:21:02.690Z,6.85
2022-08-26T12:24:23.681Z,7.45
2022-08-26T12:27:53.754Z,6.75
2022-08-26T12:31:19.716Z,7.10
2022-08-26T12:34:40.753Z,7.18
2022-08-26T12:38:04.721Z,7.10
2022-08-26T12:41:25.775Z,7.40
2022-08-26T12:44:53.388Z,7.32
2022-08-26T12:48:21.759Z,6.63
2022-08-26T12:51:48.785Z,7.47
2022-08-26T12:55:14.727Z,5.78
2022-08-26T12:58:39.754Z,6.72
2022-08-26T13:02:00.796Z,7.10
2022-08-26T13:05:21.747Z,5.85
2022-08-26T13:08:43.734Z,6.65
2022-08-26T13:12:04.752Z,6.50
2022-08-26T13:15:25.737Z,6.53
2022-08-26T13:18:46.783Z,6.43
2022-08-26T13:22:11.756Z,6.70
2022-08-26T13:25:32.745Z,6.23
2022-08-26T13:29:01.464Z,5.82
2022-08-26T13:32:27.528Z,6.35
2022-08-26T13:35:41.746Z,5.50
2022-08-26T13:39:02.737Z,8.70
2022-08-26T13:42:23.739Z,6.00
2022-08-26T13:45:37.740Z,5.53
2022-08-26T13:48:59.780Z,6.20
2022-08-26T13:52:30.168Z,6.25
2022-08-26T13:55:51.749Z,6.30
2022-08-26T13:59:13.783Z,6.20
2022-08-26T14:02:34.733Z,6.28
2022-08-26T14:05:55.750Z,6.40
2022-08-26T14:09:16.733Z,5.75
2022-08-26T14:12:37.756Z,5.88
2022-08-26T14:15:58.807Z,6.53
2022-08-26T14:19:21.755Z,6.00
2022-08-26T14:23:03.577Z,6.32
2022-08-26T14:26:29.164Z,7.05
2022-08-26T14:29:50.755Z,5.93
2022-08-26T14:33:12.755Z,6.72
2022-08-26T14:36:38.787Z,7.50
2022-08-26T14:43:22.753Z,7.30
2022-08-26T14:46:46.868Z,7.75
2022-08-26T14:50:07.760Z,7.03
2022-08-26T14:53:46.746Z,6.32
2022-08-26T14:57:17.764Z,7.70
2022-08-26T15:00:38.759Z,7.00
2022-08-26T15:03:59.783Z,7.20
2022-08-26T15:07:21.771Z,8.00
2022-08-26T15:10:42.763Z,6.28
2022-08-26T15:14:03.784Z,6.15
2022-08-26T15:17:24.802Z,6.63
2022-08-26T15:20:45.745Z,7.13
2022-08-26T15:24:07.774Z,6.65
2022-08-26T15:27:28.779Z,6.90
2022-08-26T15:30:49.904Z,6.32
2022-08-26T15:34:16.029Z,7.07
2022-08-26T15:37:37.846Z,6.55
2022-08-26T15:41:02.473Z,6.65
2022-08-26T15:44:23.776Z,6.47
2022-08-26T15:47:44.787Z,7.53
2022-08-26T15:51:45.250Z,6.85
2022-08-26T15:55:06.785Z,8.38
2022-08-26T15:58:30.763Z,7.72
2022-08-26T16:01:51.864Z,7.45
2022-08-26T16:05:12.794Z,7.53
2022-08-26T16:08:36.442Z,7.55
2022-08-26T16:11:57.809Z,7.97
2022-08-26T16:15:19.833Z,8.80
2022-08-26T16:18:41.781Z,7.82
2022-08-26T16:22:02.798Z,12.15
2022-08-26T16:25:24.805Z,9.38
2022-08-26T16:28:45.792Z,8.13
2022-08-26T16:32:06.803Z,7.55
2022-08-26T16:35:28.797Z,9.00
2022-08-26T16:38:50.823Z,7.47
2022-08-26T16:42:11.789Z,7.82
2022-08-26T16:45:32.778Z,8.38
2022-08-26T16:48:53.810Z,8.50
2022-08-26T16:52:14.815Z,8.85
2022-08-26T16:55:36.799Z,9.18
2022-08-26T16:58:57.828Z,8.70
2022-08-26T17:02:18.837Z,8.32
2022-08-26T17:05:40.821Z,9.85
2022-08-26T17:09:01.847Z,9.15
2022-08-26T17:12:22.813Z,8.73
2022-08-26T17:15:43.886Z,10.23
2022-08-26T17:19:04.822Z,9.95
2022-08-26T17:22:25.799Z,8.75
2022-08-26T17:25:46.819Z,8.63
2022-08-26T17:29:08.776Z,8.98
2022-08-26T17:32:29.774Z,10.27
2022-08-26T17:35:50.769Z,8.90
2022-08-26T17:39:11.790Z,9.30
2022-08-26T17:42:32.763Z,8.98
2022-08-26T17:45:54.813Z,9.32
2022-08-26T17:49:18.759Z,9.60
2022-08-26T17:52:39.761Z,10.75
2022-08-26T17:56:03.758Z,10.43
2022-08-26T17:59:24.766Z,13.50
2022-08-26T18:06:12.819Z,10.60
2022-08-26T18:09:33.771Z,11.05
2022-08-26T18:12:54.814Z,10.75
2022-08-26T18:16:19.826Z,11.02
2022-08-26T18:19:40.786Z,10.05
2022-08-26T18:23:01.795Z,10.35
2022-08-26T18:26:22.805Z,10.45
2022-08-26T18:29:45.347Z,10.75
2022-08-26T18:33:06.844Z,9.70
2022-08-26T18:36:29.765Z,11.15
2022-08-26T18:39:50.857Z,9.60
2022-08-26T18:43:12.781Z,11.55
2022-08-26T18:46:36.907Z,11.35
2022-08-26T18:49:57.794Z,12.52
2022-08-26T18:53:18.796Z,11.80
2022-08-26T18:56:40.789Z,10.60
2022-08-26T18:59:54.782Z,10.90
2022-08-26T19:03:18.762Z,11.13
2022-08-26T19:06:41.802Z,9.45
2022-08-26T19:10:05.325Z,9.90
2022-08-26T19:13:25.787Z,11.60
2022-08-26T19:16:47.904Z,10.07
2022-08-26T19:20:09.830Z,10.27
2022-08-26T19:23:32.658Z,10.95
2022-08-26T19:26:57.659Z,10.93
2022-08-26T19:30:20.816Z,10.05
2022-08-26T19:33:41.810Z,11.20
2022-08-26T19:37:03.850Z,10.57
2022-08-26T19:40:24.904Z,9.73
2022-08-26T19:43:46.264Z,9.98
2022-08-26T19:47:07.846Z,9.90
2022-08-26T19:50:29.816Z,10.02
2022-08-26T19:53:50.832Z,11.02
2022-08-26T19:57:11.826Z,10.40
2022-08-26T20:00:38.805Z,11.23
2022-08-26T20:03:59.811Z,10.15
2022-08-26T20:07:21.812Z,10.50
2022-08-26T20:10:42.821Z,10.93
2022-08-26T20:14:04.793Z,11.48
2022-08-26T20:17:26.813Z,12.30
2022-08-26T20:21:05.890Z,11.48
2022-08-26T20:24:33.923Z,11.30
2022-08-26T20:27:54.886Z,11.70
2022-08-26T20:31:15.866Z,12.32
2022-08-26T20:34:36.869Z,12.77
2022-08-26T20:37:57.886Z,13.30
2022-08-26T20:41:18.936Z,12.98
2022-08-26T20:44:39.873Z,12.95
2022-08-26T20:48:07.897Z,14.30
2022-08-26T20:51:32.899Z,14.10
2022-08-26T20:54:53.889Z,16.35
2022-08-26T20:58:14.881Z,17.38
2022-08-26T21:01:42.300Z,16.20
2022-08-26T21:05:03.948Z,18.30
2022-08-26T21:08:24.899Z,17.20
2022-08-26T21:11:46.865Z,16.35
2022-08-26T21:15:07.921Z,17.58
2022-08-26T21:18:28.887Z,14.98
2022-08-26T21:21:49.891Z,15.98
2022-08-26T21:25:10.877Z,15.82
2022-08-26T21:28:32.890Z,16.02
2022-08-26T21:31:47.101Z,14.57
2022-08-26T21:35:09.885Z,14.57
2022-08-26T21:38:30.907Z,15.05
2022-08-26T21:41:52.889Z,15.07
2022-08-26T21:45:32.937Z,15.98
2022-08-26T21:49:02.920Z,14.45
2022-08-26T21:52:24.907Z,14.77
2022-08-26T21:55:48.894Z,15.10
2022-08-26T21:59:09.916Z,15.30
2022-08-26T22:02:38.963Z,17.67
2022-08-26T22:06:00.912Z,14.52
2022-08-26T22:09:21.884Z,14.77
2022-08-26T22:12:42.948Z,14.82
2022-08-26T22:16:03.963Z,14.98
2022-08-26T22:19:24.925Z,14.93
2022-08-26T22:22:38.900Z,16.73
2022-08-26T22:25:59.907Z,15.40
2022-08-26T22:29:20.905Z,15.75
2022-08-26T22:32:41.937Z,14.80
2022-08-26T22:36:04.902Z,16.67
2022-08-26T22:39:26.922Z,14.68
2022-08-26T22:42:55.601Z,14.13
2022-08-26T22:46:19.921Z,14.45
2022-08-26T22:49:40.908Z,14.25
2022-08-26T22:53:01.912Z,14.75
2022-08-26T22:56:24.909Z,13.50
2022-08-26T22:59:45.904Z,13.85
2022-08-26T23:03:07.039Z,13.18
2022-08-26T23:06:27.950Z,14.15
2022-08-26T23:09:48.942Z,13.70
2022-08-26T23:13:10.933Z,13.70
2022-08-26T23:16:53.992Z,13.20
2022-08-26T23:20:17.929Z,13.15
2022-08-26T23:23:38.942Z,13.85
2022-08-26T23:26:59.950Z,13.40
2022-08-26T23:30:24.950Z,13.32
2022-08-26T23:34:03.961Z,14.70
2022-08-26T23:37:26.464Z,15.20
2022-08-26T23:40:48.945Z,14.38
2022-08-26T23:44:11.956Z,13.80
2022-08-26T23:47:32.937Z,13.90
2022-08-26T23:51:11.950Z,16.55
2022-08-26T23:54:25.951Z,13.52
2022-08-26T23:57:47.952Z,14.32
